METAR Data
IDs: Format: Raw Decoded Include TAF

Data at: 1621 UTC 03 Dec 2021

WMKC 031600Z VRB01KT 9999 FEW007 SCT020 23/23 Q1014